This is the latest recevied weather packets stored in our database for station/object DM0MR. If no packets are shown the sender has not sent any weather packets the latest 10 day(s).
| Time | Temp. | Humidity | Pressure | Rain* | Wind** | Luminosity | Snow |
|---|---|---|---|---|---|---|---|
| 1787693887 | 18.33° C | 59% | 1014.9 hPa | 0 mm | - | - | - |
| 1787692090 | 19.44° C | 52% | 1014.8 hPa | 0 mm | - | - | - |
| 1787690288 | 20° C | 51% | 1014.7 hPa | 0 mm | - | - | - |
| 1787688487 | 20° C | 54% | 1014.5 hPa | 0 mm | - | - | - |
| 1787687587 | 20.56° C | 52% | 1014.6 hPa | 0 mm | - | - | - |
| 1787686688 | 20° C | 53% | 1014.3 hPa | 0 mm | - | - | - |
| 1787683089 | 20.56° C | 57% | 1013.7 hPa | 0 mm | - | - | - |
| 1787680389 | 21.67° C | 49% | 1013.2 hPa | 0 mm | - | - | - |
| 1787679488 | 21.67° C | 48% | 1013.3 hPa | 0 mm | - | - | - |
| 1787676788 | 22.22° C | 46% | 1013.2 hPa | 0 mm | - | - | - |
| 1787675887 | 22.22° C | 45% | 1013.1 hPa | 0 mm | - | - | - |
| 1787673188 | 22.78° C | 43% | 1013 hPa | 0 mm | - | - | - |
| 1787671386 | 23.33° C | 43% | 1013.1 hPa | 0 mm | - | - | - |
| 1787665988 | 25° C | 38% | 1012.9 hPa | 0 mm | - | - | - |
| 1787664187 | 25° C | 39% | 1012.9 hPa | 0 mm | - | - | - |
| 1787663288 | 25.56° C | 38% | 1012.8 hPa | 0 mm | - | - | - |
| 1787662389 | 26.11° C | 37% | 1012.9 hPa | 0 mm | - | - | - |
| 1787661486 | 25.56° C | 40% | 1013 hPa | 0 mm | - | - | - |
| 1787660587 | 26.11° C | 39% | 1013.1 hPa | 0 mm | - | - | - |
| 1787659688 | 25.56° C | 42% | 1013.1 hPa | 0 mm | - | - | - |
| 1787657888 | 25° C | 43% | 1013.2 hPa | 0 mm | - | - | - |
| 1787656088 | 25° C | 44% | 1013.4 hPa | 0 mm | - | - | - |
| 1787655187 | 23.89° C | 47% | 1013.4 hPa | 0 mm | - | - | - |
| 1787653387 | 23.33° C | 48% | 1013.4 hPa | 0 mm | - | - | - |
| 1787651588 | 23.33° C | 49% | 1013.5 hPa | 0 mm | - | - | - |
* Rain latest hour (hover to see other rain measurements)
** Current wind speed in m/s (hover to see current wind gust speed)